Time;durP1;ratioP1;P1;durP2;ratioP2;P2;SDS_P1;SDS_P2;PMS_P1;PMS_P2;Temp;Humidity;BMP_temperature;BMP_pressure;BME280_temperature;BME280_humidity;BME280_pressure;Samples;Min_cycle;Max_cycle;Signal;HPM_P1;HPM_P2
2022/04/05 00:00:22;;;;;;;7.20;2.50;;;16.40;85.20;;;;;;2013331;28;20509;-76
2022/04/05 00:01:21;;;;;;;4.75;2.30;;;16.40;85.00;;;;;;2013438;28;20168;-77
2022/04/05 00:02:20;;;;;;;3.70;2.30;;;16.30;84.80;;;;;;2012684;28;20679;-77
2022/04/05 00:03:18;;;;;;;4.50;2.00;;;16.40;84.80;;;;;;2013082;28;20248;-77
2022/04/05 00:04:17;;;;;;;2.77;1.87;;;16.40;84.60;;;;;;2012209;28;20175;-77
2022/04/05 00:05:17;;;;;;;4.23;2.33;;;16.40;84.60;;;;;;2012799;28;20310;-77
2022/04/05 00:06:16;;;;;;;3.50;2.15;;;16.40;85.10;;;;;;2012579;28;20173;-77
2022/04/05 00:07:15;;;;;;;3.87;1.90;;;16.40;85.20;;;;;;2012871;28;20233;-77
2022/04/05 00:08:17;;;;;;;4.32;2.10;;;16.30;85.00;;;;;;2013023;28;20606;-77
2022/04/05 00:09:16;;;;;;;4.78;2.33;;;16.40;85.20;;;;;;2013382;28;20177;-77
2022/04/05 00:10:15;;;;;;;2.70;1.67;;;16.40;85.30;;;;;;2013378;28;20259;-78
2022/04/05 00:11:14;;;;;;;4.07;1.90;;;16.40;85.30;;;;;;2012640;28;20172;-77
2022/04/05 00:12:13;;;;;;;3.00;1.93;;;16.30;85.20;;;;;;2012724;28;20414;-78
2022/04/05 00:13:11;;;;;;;4.45;2.42;;;16.30;85.10;;;;;;2012344;28;20268;-78
2022/04/05 00:14:10;;;;;;;3.57;2.00;;;16.30;85.00;;;;;;2012744;28;20188;-77
2022/04/05 00:15:09;;;;;;;5.00;2.00;;;16.30;84.70;;;;;;2013262;28;20512;-77
2022/04/05 00:16:08;;;;;;;3.10;1.92;;;16.30;84.60;;;;;;2012526;28;20179;-78
2022/04/05 00:17:07;;;;;;;3.77;2.03;;;16.30;84.40;;;;;;2012640;28;20601;-78
2022/04/05 00:18:05;;;;;;;5.40;2.77;;;16.30;84.40;;;;;;2012322;28;20242;-79
2022/04/05 00:19:04;;;;;;;3.50;2.13;;;16.30;84.50;;;;;;2012534;28;20169;-78
2022/04/05 00:20:03;;;;;;;3.90;1.70;;;16.30;84.20;;;;;;2013444;28;20227;-78
2022/04/05 00:21:02;;;;;;;2.90;1.70;;;16.30;84.20;;;;;;2013439;28;20176;-78
2022/04/05 00:22:01;;;;;;;4.77;2.47;;;16.30;84.30;;;;;;2013224;28;20613;-78
2022/04/05 00:23:01;;;;;;;4.43;1.80;;;16.30;84.40;;;;;;2013315;28;20188;-78
2022/04/05 00:24:00;;;;;;;3.38;1.88;;;16.30;84.30;;;;;;2013197;28;20172;-78
2022/04/05 00:25:01;;;;;;;3.03;1.55;;;16.30;84.60;;;;;;2013278;28;20176;-78
2022/04/05 00:26:00;;;;;;;2.50;1.63;;;16.30;84.50;;;;;;2013218;28;20184;-79
2022/04/05 00:26:59;;;;;;;6.18;2.00;;;16.30;84.60;;;;;;2012606;28;20203;-77
2022/04/05 00:27:58;;;;;;;4.30;1.90;;;16.30;84.60;;;;;;2012768;28;20199;-77
2022/04/05 00:28:56;;;;;;;3.90;1.50;;;16.30;84.60;;;;;;2013568;28;20173;-77
2022/04/05 00:29:55;;;;;;;3.93;2.33;;;16.30;85.00;;;;;;2013391;28;20173;-77
2022/04/05 00:30:54;;;;;;;8.83;2.50;;;16.30;85.60;;;;;;2013086;28;20234;-77
2022/04/05 00:31:53;;;;;;;2.90;1.70;;;16.30;86.40;;;;;;2012607;28;20176;-78
2022/04/05 00:32:52;;;;;;;3.42;2.15;;;16.30;86.00;;;;;;2011878;28;20188;-78
2022/04/05 00:33:51;;;;;;;4.30;1.70;;;16.30;85.70;;;;;;2013126;28;20168;-77
2022/04/05 00:34:50;;;;;;;4.13;1.87;;;16.30;85.60;;;;;;2013183;28;20172;-79
2022/04/05 00:35:48;;;;;;;6.85;2.03;;;16.30;85.70;;;;;;2012603;28;20415;-76
2022/04/05 00:36:47;;;;;;;4.17;2.30;;;16.30;85.40;;;;;;2012290;28;20212;-77
2022/04/05 00:37:45;;;;;;;2.67;2.03;;;16.20;85.30;;;;;;2013144;28;20225;-77
2022/04/05 00:38:44;;;;;;;4.43;1.77;;;16.30;85.30;;;;;;2013260;28;20195;-76
2022/04/05 00:39:43;;;;;;;3.23;1.70;;;16.30;85.10;;;;;;2013291;28;20172;-77
2022/04/05 00:40:41;;;;;;;2.73;1.73;;;16.30;85.20;;;;;;2013220;28;20227;-77
2022/04/05 00:41:40;;;;;;;6.20;2.13;;;16.30;84.70;;;;;;2013129;28;20176;-78
2022/04/05 00:42:38;;;;;;;4.80;2.17;;;16.30;84.90;;;;;;2013094;28;20208;-78
2022/04/05 00:43:37;;;;;;;3.70;2.10;;;16.30;84.90;;;;;;2013125;28;20255;-77
2022/04/05 00:44:36;;;;;;;4.00;2.07;;;16.30;85.20;;;;;;2013073;28;20169;-77
2022/04/05 00:45:35;;;;;;;4.70;2.53;;;16.30;85.20;;;;;;2013401;28;20247;-77
2022/04/05 00:46:33;;;;;;;2.80;1.87;;;16.40;85.60;;;;;;2013162;28;20214;-76
2022/04/05 00:47:32;;;;;;;2.83;1.70;;;16.40;85.40;;;;;;2012786;28;20572;-77
2022/04/05 00:48:52;;;;;;;4.40;1.93;;;16.30;85.20;;;;;;2012990;28;20187;-77
2022/04/05 00:49:53;;;;;;;2.42;1.60;;;16.30;85.40;;;;;;2013116;28;20157;-77
2022/04/05 00:50:52;;;;;;;5.53;1.70;;;16.30;85.50;;;;;;2012946;28;20204;-77
2022/04/05 00:51:52;;;;;;;3.38;1.50;;;16.30;85.60;;;;;;2013094;28;20176;-76
2022/04/05 00:52:51;;;;;;;4.57;1.98;;;16.30;85.70;;;;;;2013162;28;20168;-79
2022/04/05 00:53:54;;;;;;;4.87;2.37;;;16.20;85.60;;;;;;2013123;28;20180;-77
2022/04/05 00:54:56;;;;;;;4.00;2.30;;;16.20;85.80;;;;;;2013047;28;20169;-78
2022/04/05 00:55:57;;;;;;;3.55;1.40;;;16.20;85.80;;;;;;2013237;28;20238;-78
2022/04/05 00:56:57;;;;;;;4.15;1.98;;;16.20;86.30;;;;;;2013041;28;20189;-77
2022/04/05 00:57:57;;;;;;;2.65;2.17;;;16.30;86.40;;;;;;2013101;28;20263;-78
2022/04/05 00:58:59;;;;;;;5.93;2.53;;;16.20;86.20;;;;;;2013092;28;20173;-77
2022/04/05 01:00:07;;;;;;;6.50;2.40;;;16.30;86.80;;;;;;2012498;28;20307;-77
2022/04/05 01:01:09;;;;;;;4.68;1.77;;;16.30;85.70;;;;;;2012437;28;20184;-78
2022/04/05 01:02:14;;;;;;;3.03;1.90;;;16.30;85.20;;;;;;2012601;28;20184;-77
2022/04/05 01:03:14;;;;;;;3.00;2.03;;;16.30;84.40;;;;;;2013268;28;20223;-79
2022/04/05 01:04:14;;;;;;;1.92;1.45;;;16.40;84.50;;;;;;2012782;28;20370;-78
2022/04/05 01:05:18;;;;;;;3.63;2.10;;;16.30;84.60;;;;;;2012440;28;20165;-77
2022/04/05 01:06:28;;;;;;;5.65;2.67;;;16.30;84.70;;;;;;2012915;28;20188;-76
2022/04/05 01:07:30;;;;;;;3.60;1.80;;;16.30;85.40;;;;;;2012921;28;20210;-77
2022/04/05 01:08:30;;;;;;;5.28;1.85;;;16.30;86.00;;;;;;2013012;28;20658;-77
2022/04/05 01:09:29;;;;;;;4.97;2.28;;;16.30;86.20;;;;;;2013129;28;20631;-77
2022/04/05 01:10:28;;;;;;;5.10;1.80;;;16.40;86.70;;;;;;2012902;28;20195;-78
2022/04/05 01:11:32;;;;;;;4.95;1.90;;;16.30;86.80;;;;;;2012920;28;20169;-77
2022/04/05 01:12:32;;;;;;;6.15;2.25;;;16.40;88.80;;;;;;2013091;28;20579;-77
2022/04/05 01:13:32;;;;;;;4.72;1.92;;;16.30;85.90;;;;;;2012425;28;20172;-78
2022/04/05 01:14:32;;;;;;;6.45;1.73;;;16.40;86.70;;;;;;2012338;28;20169;-78
2022/04/05 01:15:31;;;;;;;4.97;2.00;;;16.40;87.40;;;;;;2012329;28;20180;-78
2022/04/05 01:16:31;;;;;;;4.00;1.75;;;16.50;87.10;;;;;;2012265;28;20544;-77
2022/04/05 01:17:33;;;;;;;3.10;1.45;;;16.40;86.30;;;;;;2012831;28;20183;-78
2022/04/05 01:18:34;;;;;;;3.53;1.40;;;16.40;85.80;;;;;;2012904;28;20271;-77
2022/04/05 01:19:33;;;;;;;2.72;1.27;;;16.40;87.00;;;;;;2012325;28;20172;-77
2022/04/05 01:20:32;;;;;;;3.25;1.95;;;16.40;84.80;;;;;;2012299;28;20259;-78
2022/04/05 01:21:30;;;;;;;2.70;1.83;;;16.40;84.80;;;;;;2012155;28;20180;-77
2022/04/05 01:22:30;;;;;;;9.93;2.60;;;16.40;85.00;;;;;;2012455;28;20226;-77
2022/04/05 01:23:29;;;;;;;2.50;1.40;;;16.40;84.50;;;;;;2012985;28;20165;-77
2022/04/05 01:24:28;;;;;;;5.27;1.90;;;16.40;84.20;;;;;;2012736;28;20588;-78
2022/04/05 01:25:26;;;;;;;3.97;1.50;;;16.40;84.30;;;;;;2012821;28;20234;-77
2022/04/05 01:26:25;;;;;;;5.53;1.93;;;16.50;84.40;;;;;;2012890;28;20203;-78
2022/04/05 01:27:27;;;;;;;3.90;2.00;;;16.40;84.10;;;;;;2013036;28;20194;-77
2022/04/05 01:28:26;;;;;;;4.10;1.38;;;16.50;84.40;;;;;;2012915;28;20164;-78
2022/04/05 01:29:28;;;;;;;2.00;1.17;;;16.50;84.80;;;;;;2017367;28;20207;-79
2022/04/05 01:30:26;;;;;;;2.42;1.67;;;16.50;84.40;;;;;;2016492;28;20169;-77
2022/04/05 01:31:25;;;;;;;2.70;1.50;;;16.50;84.00;;;;;;2017212;28;20223;-78
2022/04/05 01:32:24;;;;;;;4.40;1.20;;;16.50;84.60;;;;;;2017715;28;20180;-78
2022/04/05 01:33:22;;;;;;;2.40;1.53;;;16.50;84.60;;;;;;2015244;28;20172;-78
2022/04/05 01:34:24;;;;;;;2.40;1.40;;;16.50;84.50;;;;;;2014803;28;20192;-78
2022/04/05 01:35:23;;;;;;;1.55;1.05;;;16.50;84.50;;;;;;2014315;28;20183;-77
2022/04/05 01:36:25;;;;;;;3.30;1.80;;;16.50;84.80;;;;;;2013126;28;20666;-78
2022/04/05 01:37:24;;;;;;;2.47;1.60;;;16.50;84.90;;;;;;2013645;28;20617;-78
2022/04/05 01:38:22;;;;;;;4.63;2.23;;;16.50;84.80;;;;;;2012500;28;20188;-77
2022/04/05 01:39:23;;;;;;;4.43;1.57;;;16.50;84.80;;;;;;2012319;28;20570;-78
2022/04/05 01:40:24;;;;;;;2.83;1.60;;;16.40;85.00;;;;;;2012118;28;20187;-78
2022/04/05 01:41:25;;;;;;;5.25;1.35;;;16.50;85.60;;;;;;2012353;28;20246;-78
2022/04/05 01:42:23;;;;;;;3.25;1.40;;;16.50;86.60;;;;;;2012136;28;20263;-78
2022/04/05 01:43:22;;;;;;;3.63;1.53;;;16.50;86.80;;;;;;2012335;28;20670;-78
2022/04/05 01:44:21;;;;;;;4.07;2.10;;;16.50;90.30;;;;;;2012769;28;20715;-78
2022/04/05 01:45:20;;;;;;;1.80;1.45;;;16.50;88.10;;;;;;2012966;28;20219;-78
2022/04/05 01:46:18;;;;;;;1.30;1.10;;;16.50;87.90;;;;;;2012857;28;20673;-78
2022/04/05 01:47:18;;;;;;;3.53;2.30;;;16.50;83.40;;;;;;2012298;28;20752;-78
2022/04/05 01:48:18;;;;;;;3.05;1.80;;;16.50;83.10;;;;;;2004017;28;20688;-78
2022/04/05 01:49:17;;;;;;;2.50;1.73;;;16.50;83.80;;;;;;2012070;28;20176;-78
2022/04/05 01:50:17;;;;;;;5.23;1.53;;;16.50;84.80;;;;;;2012867;28;20168;-78
2022/04/05 01:51:15;;;;;;;2.03;1.33;;;16.50;89.40;;;;;;2012833;28;20747;-78
2022/04/05 01:52:14;;;;;;;3.17;1.47;;;16.60;89.30;;;;;;2012824;28;20238;-78
2022/04/05 01:53:14;;;;;;;3.67;1.63;;;16.50;90.00;;;;;;2012998;28;20412;-78
2022/04/05 01:54:15;;;;;;;1.92;1.25;;;16.50;87.60;;;;;;2012837;28;20179;-78
2022/04/05 01:55:14;;;;;;;2.20;1.30;;;16.50;86.90;;;;;;2012850;28;20177;-78
2022/04/05 01:56:13;;;;;;;4.17;1.20;;;16.50;88.10;;;;;;2012628;28;20255;-78
2022/04/05 01:57:12;;;;;;;3.83;1.60;;;16.50;87.60;;;;;;2012842;28;20174;-78
2022/04/05 01:58:10;;;;;;;3.83;1.30;;;16.50;88.00;;;;;;2013091;28;20662;-78
2022/04/05 01:59:11;;;;;;;1.93;0.97;;;16.40;88.00;;;;;;2013020;28;20287;-78
2022/04/05 02:00:14;;;;;;;3.10;1.50;;;16.50;87.20;;;;;;2013039;28;20177;-78
2022/04/05 02:01:12;;;;;;;8.60;1.73;;;16.50;87.70;;;;;;2012887;28;20165;-79
2022/04/05 02:02:12;;;;;;;2.53;1.27;;;16.40;86.10;;;;;;2012195;28;20524;-78
2022/04/05 02:03:12;;;;;;;4.03;1.35;;;16.50;86.90;;;;;;2012495;28;20223;-78
2022/04/05 02:04:11;;;;;;;2.42;1.25;;;16.50;87.10;;;;;;2012591;28;20536;-78
2022/04/05 02:05:10;;;;;;;3.55;1.48;;;16.50;87.80;;;;;;2012838;28;20231;-78
2022/04/05 02:06:10;;;;;;;2.13;1.35;;;16.40;87.10;;;;;;2012788;28;20176;-78
2022/04/05 02:07:17;;;;;;;2.78;1.50;;;16.50;86.90;;;;;;2013182;28;20192;-78
2022/04/05 02:08:17;;;;;;;4.75;1.77;;;16.50;86.80;;;;;;2012011;28;20200;-78
2022/04/05 02:09:17;;;;;;;1.42;1.13;;;16.50;86.40;;;;;;2012085;28;20174;-78
2022/04/05 02:10:16;;;;;;;3.55;1.50;;;16.40;85.90;;;;;;2012011;28;20657;-79
2022/04/05 02:11:15;;;;;;;2.10;1.77;;;16.40;85.80;;;;;;2012190;28;20216;-77
2022/04/05 02:12:13;;;;;;;2.50;1.40;;;16.40;85.60;;;;;;2012508;28;20650;-79
2022/04/05 02:13:12;;;;;;;2.13;1.23;;;16.40;85.50;;;;;;2012578;28;20254;-78
2022/04/05 02:14:12;;;;;;;3.03;1.30;;;16.40;85.50;;;;;;2012546;28;20188;-78
2022/04/05 02:15:10;;;;;;;1.90;1.70;;;16.40;85.70;;;;;;2012618;28;20226;-78
2022/04/05 02:16:09;;;;;;;2.43;1.07;;;16.40;85.60;;;;;;2012670;28;20691;-78
2022/04/05 02:17:08;;;;;;;1.33;1.23;;;16.40;85.30;;;;;;2012195;28;20403;-78
2022/04/05 02:18:07;;;;;;;3.10;1.77;;;16.40;85.00;;;;;;2012161;28;20173;-77
2022/04/05 02:19:06;;;;;;;3.20;1.40;;;16.40;84.80;;;;;;2012684;28;20538;-78
2022/04/05 02:20:05;;;;;;;1.97;1.07;;;16.40;84.60;;;;;;2012721;28;20527;-78
2022/04/05 02:21:05;;;;;;;2.95;1.52;;;16.40;84.50;;;;;;2012625;28;20172;-78
2022/04/05 02:22:04;;;;;;;2.00;1.30;;;16.40;84.40;;;;;;2012010;28;20181;-78
2022/04/05 02:23:03;;;;;;;2.00;1.00;;;16.40;84.40;;;;;;2011849;28;21019;-78
2022/04/05 02:24:01;;;;;;;3.63;1.17;;;16.40;84.20;;;;;;2012680;28;20233;-78
2022/04/05 02:25:03;;;;;;;4.10;1.30;;;16.40;84.20;;;;;;2012430;28;20204;-77
2022/04/05 02:26:02;;;;;;;3.58;1.52;;;16.40;84.20;;;;;;2012666;28;20181;-77
2022/04/05 02:27:01;;;;;;;3.08;1.70;;;16.40;82.50;;;;;;2012435;28;20211;-78
2022/04/05 02:27:59;;;;;;;4.60;1.73;;;16.40;81.90;;;;;;2012400;28;20199;-77
2022/04/05 02:28:58;;;;;;;2.50;1.57;;;16.40;81.30;;;;;;2012530;28;20165;-77
2022/04/05 02:29:57;;;;;;;2.93;1.10;;;16.40;81.30;;;;;;2012459;28;20252;-77
2022/04/05 02:30:56;;;;;;;2.43;1.50;;;16.40;80.80;;;;;;2012347;28;20592;-78
2022/04/05 02:31:56;;;;;;;1.77;1.17;;;16.40;80.40;;;;;;2012389;28;20177;-78
2022/04/05 02:32:54;;;;;;;3.08;1.45;;;16.40;80.10;;;;;;2012484;28;20407;-77
2022/04/05 02:33:53;;;;;;;2.90;1.93;;;16.40;80.00;;;;;;2012373;28;20641;-77
2022/04/05 02:34:51;;;;;;;4.07;1.27;;;16.40;80.00;;;;;;2012248;28;20227;-77
2022/04/05 02:35:51;;;;;;;4.80;1.40;;;16.50;79.90;;;;;;2012238;28;20177;-77
2022/04/05 02:36:50;;;;;;;4.35;1.85;;;16.50;79.80;;;;;;2012268;28;20197;-78
2022/04/05 02:37:49;;;;;;;11.03;2.17;;;16.40;79.70;;;;;;2012227;28;20534;-77
2022/04/05 02:38:49;;;;;;;2.30;1.77;;;16.40;79.40;;;;;;2012305;28;20322;-77
2022/04/05 02:39:47;;;;;;;5.88;1.52;;;16.40;79.30;;;;;;2012291;28;20230;-77
2022/04/05 02:40:46;;;;;;;1.77;1.20;;;16.40;79.20;;;;;;2012140;28;20180;-76
2022/04/05 02:41:44;;;;;;;2.53;1.43;;;16.40;79.20;;;;;;2012312;28;20178;-77
2022/04/05 02:42:43;;;;;;;3.53;1.90;;;16.40;79.40;;;;;;2012315;28;20173;-78
2022/04/05 02:43:41;;;;;;;4.27;1.50;;;16.40;79.30;;;;;;2012359;28;20197;-77
2022/04/05 02:44:40;;;;;;;2.00;1.17;;;16.40;79.20;;;;;;2012350;28;20169;-78
2022/04/05 02:45:39;;;;;;;2.30;1.73;;;16.40;79.20;;;;;;2012535;28;20172;-77
2022/04/05 02:46:37;;;;;;;1.73;1.00;;;16.40;79.30;;;;;;2012228;28;20558;-78
2022/04/05 02:47:36;;;;;;;3.80;1.60;;;16.40;79.10;;;;;;2012272;28;20165;-78
2022/04/05 02:48:35;;;;;;;3.60;2.00;;;16.40;79.10;;;;;;2012098;28;20747;-77
2022/04/05 02:49:34;;;;;;;3.67;1.40;;;16.40;78.90;;;;;;2012162;28;20192;-78
2022/04/05 02:50:33;;;;;;;4.78;2.00;;;16.40;78.80;;;;;;2012366;28;20160;-78
2022/04/05 02:51:32;;;;;;;2.77;1.43;;;16.30;78.80;;;;;;2013910;28;20502;-77
2022/04/05 02:52:30;;;;;;;1.40;1.00;;;16.30;79.20;;;;;;2013837;28;20175;-77
2022/04/05 02:53:29;;;;;;;2.30;1.53;;;16.40;79.20;;;;;;2013808;28;20221;-76
2022/04/05 02:54:27;;;;;;;3.00;1.53;;;16.40;79.20;;;;;;2013773;28;20199;-79
2022/04/05 02:55:26;;;;;;;2.93;1.50;;;16.40;79.20;;;;;;2013836;28;20246;-78
2022/04/05 02:56:25;;;;;;;1.80;1.60;;;16.40;78.90;;;;;;2013689;28;20188;-77
2022/04/05 02:57:23;;;;;;;2.20;1.50;;;16.40;78.80;;;;;;2013771;28;20572;-78
2022/04/05 02:58:22;;;;;;;2.80;1.17;;;16.30;78.90;;;;;;2012993;28;20303;-77
2022/04/05 02:59:20;;;;;;;5.50;1.70;;;16.30;79.10;;;;;;2005133;28;20574;-77
2022/04/05 03:00:19;;;;;;;2.37;1.70;;;16.30;79.10;;;;;;2012776;28;20183;-77
2022/04/05 03:01:19;;;;;;;2.20;1.75;;;16.40;79.20;;;;;;2013747;28;20192;-78
2022/04/05 03:02:18;;;;;;;7.68;1.70;;;16.40;79.10;;;;;;2013729;28;20185;-78
2022/04/05 03:03:17;;;;;;;6.03;1.60;;;16.30;79.00;;;;;;2013717;28;20173;-77
2022/04/05 03:04:15;;;;;;;2.70;1.37;;;16.30;78.90;;;;;;2013721;28;20168;-77
2022/04/05 03:05:14;;;;;;;2.20;1.30;;;16.40;79.00;;;;;;2013666;28;20168;-77
2022/04/05 03:06:14;;;;;;;2.20;1.23;;;16.30;78.80;;;;;;2013597;28;20184;-77
2022/04/05 03:07:15;;;;;;;2.33;1.13;;;16.30;78.80;;;;;;2013606;28;20190;-79
2022/04/05 03:08:13;;;;;;;5.22;1.67;;;16.30;78.80;;;;;;2013602;28;20200;-78
2022/04/05 03:09:12;;;;;;;2.10;1.20;;;16.20;78.90;;;;;;2013527;28;20710;-78
2022/04/05 03:10:11;;;;;;;4.10;1.50;;;16.30;79.00;;;;;;2013754;28;20263;-77
2022/04/05 03:11:10;;;;;;;2.30;1.50;;;16.20;78.90;;;;;;2013843;28;20172;-77
2022/04/05 03:12:09;;;;;;;1.80;1.33;;;16.30;79.10;;;;;;2013770;28;20256;-78
2022/04/05 03:13:08;;;;;;;2.10;1.10;;;16.30;79.00;;;;;;2013651;28;20179;-78
2022/04/05 03:14:06;;;;;;;2.53;1.50;;;16.30;79.10;;;;;;2013753;28;20404;-78
2022/04/05 03:15:07;;;;;;;2.00;1.07;;;16.30;79.00;;;;;;2013830;28;20751;-78
2022/04/05 03:16:06;;;;;;;2.75;1.50;;;16.30;79.30;;;;;;2013630;28;20168;-78
2022/04/05 03:17:05;;;;;;;1.47;1.23;;;16.30;79.10;;;;;;2013466;28;20224;-79
2022/04/05 03:18:03;;;;;;;2.33;1.30;;;16.30;79.20;;;;;;2013581;28;20172;-77
2022/04/05 03:19:02;;;;;;;4.07;1.40;;;16.30;79.20;;;;;;2013384;28;20177;-78
2022/04/05 03:20:03;;;;;;;3.10;1.70;;;16.30;79.10;;;;;;2013647;28;20172;-78
2022/04/05 03:21:02;;;;;;;3.08;1.52;;;16.30;79.20;;;;;;2013581;28;20408;-78
2022/04/05 03:22:00;;;;;;;5.37;1.67;;;16.30;79.20;;;;;;2013652;28;20260;-78
2022/04/05 03:23:00;;;;;;;2.20;1.40;;;16.30;79.80;;;;;;2013850;28;20268;-77
2022/04/05 03:23:59;;;;;;;1.52;1.20;;;16.30;79.40;;;;;;2013614;28;20185;-77
2022/04/05 03:24:57;;;;;;;1.67;1.10;;;16.30;79.30;;;;;;2013618;28;20643;-77
2022/04/05 03:25:56;;;;;;;2.40;1.07;;;16.30;79.10;;;;;;2013665;28;20180;-77
2022/04/05 03:26:54;;;;;;;3.10;1.50;;;16.20;79.00;;;;;;2013531;28;20276;-77
2022/04/05 03:27:53;;;;;;;3.63;1.57;;;16.30;79.30;;;;;;2013346;28;20204;-77
2022/04/05 03:28:52;;;;;;;3.57;1.77;;;16.30;79.40;;;;;;2013578;28;20181;-77
2022/04/05 03:29:51;;;;;;;2.80;1.77;;;16.40;79.60;;;;;;2013867;28;20430;-78
2022/04/05 03:30:50;;;;;;;4.60;1.65;;;16.30;79.30;;;;;;2013481;28;20203;-79
2022/04/05 03:31:48;;;;;;;1.50;1.40;;;16.20;79.20;;;;;;2013461;28;20176;-77
2022/04/05 03:32:48;;;;;;;1.73;1.20;;;16.30;80.10;;;;;;2013592;28;20655;-77
2022/04/05 03:33:46;;;;;;;3.95;1.67;;;16.20;79.40;;;;;;2013494;28;20169;-76
2022/04/05 03:34:46;;;;;;;4.13;1.90;;;16.20;79.30;;;;;;2013524;28;20175;-77
2022/04/05 03:35:45;;;;;;;1.83;1.33;;;16.20;79.30;;;;;;2013559;28;20172;-76
2022/04/05 03:36:44;;;;;;;1.77;1.10;;;16.30;79.60;;;;;;2013239;28;20275;-77
2022/04/05 03:37:42;;;;;;;2.63;1.60;;;16.20;79.50;;;;;;2013379;28;20161;-76
2022/04/05 03:38:41;;;;;;;3.13;1.40;;;16.30;79.60;;;;;;2013518;28;20172;-77
2022/04/05 03:39:41;;;;;;;6.33;1.67;;;16.30;79.40;;;;;;2013626;28;20518;-78
2022/04/05 03:40:39;;;;;;;2.25;1.55;;;16.20;79.40;;;;;;2013329;28;20657;-77
2022/04/05 03:41:38;;;;;;;1.73;1.20;;;16.20;79.30;;;;;;2013517;28;20184;-77
2022/04/05 03:42:37;;;;;;;2.07;1.13;;;16.20;79.30;;;;;;2012780;28;20658;-78
2022/04/05 03:43:35;;;;;;;3.33;1.33;;;16.20;79.50;;;;;;2004998;28;20185;-78
2022/04/05 03:44:34;;;;;;;3.33;1.00;;;16.20;79.70;;;;;;2012329;28;20665;-79
2022/04/05 03:45:33;;;;;;;1.30;1.17;;;16.30;79.70;;;;;;2013459;28;20211;-79
2022/04/05 03:46:32;;;;;;;4.27;1.60;;;16.30;79.70;;;;;;2013478;28;20773;-79
2022/04/05 03:47:31;;;;;;;6.63;1.57;;;16.30;79.70;;;;;;2013480;28;20403;-79
2022/04/05 03:48:29;;;;;;;2.90;1.43;;;16.30;79.80;;;;;;2013157;28;20586;-76
2022/04/05 03:49:29;;;;;;;1.73;1.03;;;16.30;79.60;;;;;;2013433;28;20430;-79
2022/04/05 03:50:28;;;;;;;2.17;1.48;;;16.30;79.80;;;;;;2013565;28;20641;-76
2022/04/05 03:51:28;;;;;;;1.95;1.10;;;16.20;79.80;;;;;;2013332;28;20161;-79
2022/04/05 03:52:26;;;;;;;4.32;1.85;;;16.20;79.80;;;;;;2013364;28;20575;-78
2022/04/05 03:53:26;;;;;;;4.33;1.30;;;16.30;79.20;;;;;;2013421;28;20172;-79
2022/04/05 03:54:25;;;;;;;1.27;1.05;;;16.30;78.60;;;;;;2013212;28;20187;-77
2022/04/05 03:55:24;;;;;;;3.30;1.43;;;16.30;78.10;;;;;;2013349;28;20180;-79
2022/04/05 03:56:23;;;;;;;2.67;1.40;;;16.30;77.90;;;;;;2012580;28;20667;-78
2022/04/05 03:57:21;;;;;;;1.92;1.10;;;16.30;77.90;;;;;;2012700;28;20469;-78
2022/04/05 03:58:20;;;;;;;7.03;1.63;;;16.60;77.80;;;;;;2013261;28;20184;-78
2022/04/05 03:59:19;;;;;;;2.30;1.33;;;16.30;77.60;;;;;;2013223;28;20688;-78
2022/04/05 04:00:17;;;;;;;4.43;1.37;;;16.30;77.70;;;;;;2013261;28;20176;-77
2022/04/05 04:01:17;;;;;;;1.87;1.43;;;16.40;77.90;;;;;;2013449;28;20576;-79
2022/04/05 04:02:15;;;;;;;2.45;1.10;;;16.40;77.50;;;;;;2013080;28;20176;-78
2022/04/05 04:03:14;;;;;;;2.90;1.23;;;16.30;77.40;;;;;;2013134;28;20208;-78
2022/04/05 04:04:12;;;;;;;1.83;1.07;;;16.40;77.30;;;;;;2013197;28;20187;-79
2022/04/05 04:05:16;;;;;;;3.20;1.30;;;16.40;77.40;;;;;;2013271;28;20176;-78
2022/04/05 04:06:14;;;;;;;1.80;1.30;;;16.40;77.40;;;;;;2013116;28;20159;-78
2022/04/05 04:07:14;;;;;;;2.77;0.87;;;16.40;77.50;;;;;;2012538;28;20188;-79
2022/04/05 04:08:12;;;;;;;2.20;1.15;;;16.40;77.30;;;;;;2012540;28;20254;-79
2022/04/05 04:09:11;;;;;;;1.90;1.10;;;16.40;77.40;;;;;;2012695;28;20230;-79
2022/04/05 04:10:10;;;;;;;5.53;1.90;;;16.50;77.60;;;;;;2012682;28;20717;-78
2022/04/05 04:11:08;;;;;;;3.03;1.50;;;16.40;77.60;;;;;;2013126;28;20631;-79
2022/04/05 04:12:08;;;;;;;3.17;1.53;;;16.40;77.60;;;;;;2014916;28;20553;-78
2022/04/05 04:13:06;;;;;;;2.55;1.30;;;16.40;77.60;;;;;;2016423;28;20192;-79
2022/04/05 04:14:05;;;;;;;2.47;1.10;;;16.40;77.50;;;;;;2012606;28;20173;-79
2022/04/05 04:15:05;;;;;;;2.95;1.55;;;16.40;77.50;;;;;;2013720;28;20226;-79
2022/04/05 04:16:04;;;;;;;2.65;1.48;;;16.40;77.60;;;;;;2016393;28;20192;-80
2022/04/05 04:17:03;;;;;;;3.33;1.30;;;16.40;77.60;;;;;;2017086;28;20196;-79
2022/04/05 04:18:03;;;;;;;4.27;1.97;;;16.40;77.60;;;;;;2015920;28;20172;-79
2022/04/05 04:19:02;;;;;;;2.20;1.50;;;16.40;77.50;;;;;;2015825;28;20753;-79
2022/04/05 04:20:02;;;;;;;3.00;1.02;;;16.40;77.50;;;;;;2013788;28;20746;-79
2022/04/05 04:21:00;;;;;;;2.40;1.10;;;16.40;77.40;;;;;;2013332;28;20211;-78
2022/04/05 04:21:59;;;;;;;3.53;1.53;;;16.40;77.60;;;;;;2013787;28;20204;-78
2022/04/05 04:22:57;;;;;;;3.03;1.33;;;16.50;77.80;;;;;;2013653;28;20172;-78
2022/04/05 04:23:56;;;;;;;2.23;1.43;;;16.40;77.70;;;;;;2013393;28;20296;-77
2022/04/05 04:24:56;;;;;;;3.40;1.43;;;16.40;77.70;;;;;;2013151;28;20208;-76
2022/04/05 04:25:55;;;;;;;3.72;1.15;;;16.50;77.70;;;;;;2013164;28;20180;-77
2022/04/05 04:26:53;;;;;;;4.10;1.50;;;16.50;77.60;;;;;;2013076;28;20200;-78
2022/04/05 04:27:52;;;;;;;1.63;1.33;;;16.50;77.60;;;;;;2013100;28;20177;-77
2022/04/05 04:28:52;;;;;;;1.47;1.13;;;16.50;77.60;;;;;;2013310;28;20230;-77
2022/04/05 04:29:51;;;;;;;3.88;1.08;;;16.50;77.60;;;;;;2013152;28;20169;-77
2022/04/05 04:30:49;;;;;;;3.43;1.77;;;16.50;77.50;;;;;;2013285;28;20635;-77
2022/04/05 04:31:48;;;;;;;2.13;1.17;;;16.50;77.80;;;;;;2013115;28;20403;-77
2022/04/05 04:32:46;;;;;;;2.43;1.50;;;16.50;77.50;;;;;;2012535;28;20168;-78
2022/04/05 04:33:45;;;;;;;2.50;1.20;;;16.50;77.50;;;;;;2012589;28;20226;-77
2022/04/05 04:34:44;;;;;;;1.83;1.10;;;16.60;77.50;;;;;;2013223;28;20169;-77
2022/04/05 04:35:45;;;;;;;1.77;1.43;;;16.50;77.40;;;;;;2013001;28;20165;-77
2022/04/05 04:36:45;;;;;;;2.08;1.00;;;16.50;77.60;;;;;;2012861;28;20233;-78
2022/04/05 04:37:44;;;;;;;1.92;0.90;;;16.50;77.60;;;;;;2013059;28;20184;-77
2022/04/05 04:38:43;;;;;;;2.30;1.13;;;16.50;77.50;;;;;;2012946;28;20627;-77
2022/04/05 04:39:42;;;;;;;2.70;1.50;;;16.50;77.60;;;;;;2012937;28;20204;-78
2022/04/05 04:40:47;;;;;;;3.93;1.70;;;16.50;77.60;;;;;;2012900;28;20165;-77
2022/04/05 04:41:46;;;;;;;1.63;1.20;;;16.50;77.70;;;;;;2013032;28;20407;-80
2022/04/05 04:42:45;;;;;;;5.90;1.50;;;16.40;77.50;;;;;;2013000;28;20252;-78
2022/04/05 04:43:43;;;;;;;3.20;1.40;;;16.50;77.60;;;;;;2013001;28;20172;-78
2022/04/05 04:44:42;;;;;;;3.80;1.23;;;16.50;77.60;;;;;;2013025;28;20263;-78
2022/04/05 04:45:41;;;;;;;2.80;1.13;;;16.50;77.70;;;;;;2012884;28;20160;-78
2022/04/05 04:46:39;;;;;;;1.80;1.50;;;16.50;77.60;;;;;;2013048;28;20233;-78
2022/04/05 04:47:39;;;;;;;4.37;1.40;;;16.50;77.70;;;;;;2012955;28;20189;-78
2022/04/05 04:48:40;;;;;;;1.30;0.90;;;16.50;77.60;;;;;;2012095;28;20239;-78
2022/04/05 04:49:38;;;;;;;1.70;1.13;;;16.50;77.50;;;;;;2012345;28;20593;-78
2022/04/05 04:50:37;;;;;;;1.90;1.10;;;16.50;77.60;;;;;;2012906;28;20215;-79
2022/04/05 04:51:36;;;;;;;3.97;1.30;;;16.50;77.60;;;;;;2012858;28;20165;-77
2022/04/05 04:52:36;;;;;;;2.30;1.23;;;16.40;77.50;;;;;;2012889;28;20180;-78
2022/04/05 04:53:34;;;;;;;2.63;1.52;;;16.40;77.70;;;;;;2012827;28;20169;-77
2022/04/05 04:54:53;;;;;;;3.23;1.43;;;16.50;77.80;;;;;;2012169;28;20180;-77
2022/04/05 04:55:52;;;;;;;2.15;1.00;;;16.50;77.80;;;;;;2012151;28;20180;-78
2022/04/05 04:56:51;;;;;;;2.38;1.15;;;16.50;78.00;;;;;;2012103;28;20275;-79
2022/04/05 04:57:50;;;;;;;3.00;1.57;;;16.50;77.80;;;;;;2012854;28;20172;-78
2022/04/05 04:58:48;;;;;;;4.00;1.63;;;16.50;77.80;;;;;;2013037;28;20914;-79
2022/04/05 04:59:48;;;;;;;2.70;1.50;;;16.50;77.90;;;;;;2012966;28;20176;-77
2022/04/05 05:00:48;;;;;;;2.08;1.40;;;16.40;77.80;;;;;;2012680;28;20684;-80
2022/04/05 05:01:46;;;;;;;4.03;1.30;;;16.50;77.90;;;;;;2012839;28;20180;-78
2022/04/05 05:02:49;;;;;;;1.80;1.17;;;16.40;77.90;;;;;;2012863;28;20678;-78
2022/04/05 05:03:48;;;;;;;2.92;1.40;;;16.40;77.90;;;;;;2012737;28;20196;-77
2022/04/05 05:04:46;;;;;;;3.10;1.57;;;16.40;78.00;;;;;;2012960;28;20524;-78
2022/04/05 05:05:45;;;;;;;1.47;0.93;;;16.50;78.10;;;;;;2012723;28;20161;-78
2022/04/05 05:06:44;;;;;;;2.80;1.50;;;16.40;78.00;;;;;;2012800;28;20196;-78
2022/04/05 05:07:44;;;;;;;2.80;1.30;;;16.50;78.10;;;;;;2012655;28;20161;-78
2022/04/05 05:08:43;;;;;;;4.43;1.80;;;16.50;78.10;;;;;;2012775;28;20164;-77
2022/04/05 05:09:42;;;;;;;2.87;1.40;;;16.50;78.10;;;;;;2012726;28;20635;-77